createdAt,value
2023-12-09T00:00:02.217Z,95024.44
2023-12-09T00:03:06.861Z,95021.47
2023-12-09T00:06:10.969Z,95021.47
2023-12-09T00:09:15.425Z,95011.41
2023-12-09T00:12:18.984Z,95021.47
2023-12-09T00:15:23.677Z,95010.00
2023-12-09T00:18:27.119Z,95024.13
2023-12-09T00:21:30.540Z,95018.78
2023-12-09T00:24:33.781Z,95021.47
2023-12-09T00:27:37.230Z,95016.91
2023-12-09T00:30:41.767Z,95014.56
2023-12-09T00:33:45.162Z,95014.09
2023-12-09T00:36:48.429Z,95019.41
2023-12-09T00:39:51.649Z,95015.34
2023-12-09T00:42:54.912Z,95010.81
2023-12-09T00:45:59.561Z,95008.91
2023-12-09T00:49:02.852Z,95009.22
2023-12-09T00:52:07.733Z,95009.22
2023-12-09T00:55:12.656Z,95015.81
2023-12-09T00:58:17.458Z,95011.09
2023-12-09T01:01:22.039Z,95021.47
2023-12-09T01:04:25.498Z,95023.03
2023-12-09T01:07:28.872Z,95022.56
2023-12-09T01:10:32.004Z,95026.78
2023-12-09T01:13:35.212Z,95020.97
2023-12-09T01:16:39.828Z,95029.75
2023-12-09T01:19:43.160Z,95026.78
2023-12-09T01:22:48.911Z,95029.75
2023-12-09T01:25:52.094Z,95030.56
2023-12-09T01:28:57.831Z,95024.25
2023-12-09T01:32:02.389Z,95039.63
2023-12-09T01:35:06.967Z,95041.22
2023-12-09T01:38:10.702Z,95031.66
2023-12-09T01:41:13.911Z,95028.19
2023-12-09T01:44:18.583Z,95025.84
2023-12-09T01:47:24.326Z,95022.69
2023-12-09T01:50:28.522Z,95008.09
2023-12-09T01:53:32.290Z,95016.75
2023-12-09T01:56:35.523Z,95007.81
2023-12-09T01:59:39.253Z,95004.22
2023-12-09T02:02:43.822Z,95011.41
2023-12-09T02:05:46.932Z,94998.09
2023-12-09T02:08:50.868Z,94997.63
2023-12-09T02:12:00.476Z,94990.56
2023-12-09T02:15:08.764Z,94986.97
2023-12-09T02:18:14.688Z,94996.53
2023-12-09T02:21:18.701Z,94999.81
2023-12-09T02:24:23.358Z,95007.50
2023-12-09T02:27:33.750Z,95004.50
2023-12-09T02:30:47.128Z,94999.81
2023-12-09T02:33:51.101Z,95004.34
2023-12-09T02:36:55.229Z,94999.81
2023-12-09T02:40:02.056Z,94993.38
2023-12-09T02:43:06.397Z,94989.16
2023-12-09T02:46:13.696Z,94990.25
2023-12-09T02:49:17.124Z,94987.09
2023-12-09T02:52:20.665Z,94988.78
2023-12-09T02:55:25.383Z,94995.09
2023-12-09T02:58:28.623Z,94998.22
2023-12-09T03:01:31.718Z,94974.03
2023-12-09T03:04:35.383Z,94988.97
2023-12-09T03:07:38.611Z,94999.03
2023-12-09T03:10:43.189Z,94981.28
2023-12-09T03:13:46.459Z,94988.97
2023-12-09T03:16:49.639Z,94986.63
2023-12-09T03:19:52.996Z,94981.28
2023-12-09T03:22:56.184Z,94979.88
2023-12-09T03:26:00.726Z,94998.38
2023-12-09T03:29:03.902Z,94999.63
2023-12-09T03:32:07.213Z,94979.34
2023-12-09T03:35:13.603Z,94991.66
2023-12-09T03:38:16.751Z,94969.94
2023-12-09T03:41:24.591Z,94998.84
2023-12-09T03:44:29.027Z,94990.06
2023-12-09T03:47:32.521Z,94992.53
2023-12-09T03:50:35.616Z,94996.97
2023-12-09T03:53:38.777Z,94988.00
2023-12-09T03:56:43.364Z,94997.28
2023-12-09T03:59:46.547Z,95003.09
2023-12-09T04:02:49.691Z,95001.50
2023-12-09T04:05:52.953Z,95008.41
2023-12-09T04:08:56.198Z,95009.50
2023-12-09T04:12:01.529Z,95006.22
2023-12-09T04:15:05.183Z,95012.19
2023-12-09T04:18:08.903Z,95014.56
2023-12-09T04:21:12.163Z,95017.69
2023-12-09T04:24:15.481Z,95019.16
2023-12-09T04:27:20.315Z,95013.66
2023-12-09T04:30:24.341Z,95024.97
2023-12-09T04:33:27.466Z,95023.41
2023-12-09T04:36:30.999Z,95019.63
2023-12-09T04:39:34.327Z,95019.31
2023-12-09T04:42:39.303Z,95016.19
2023-12-09T04:45:42.530Z,95019.63
2023-12-09T04:48:45.998Z,95021.53
2023-12-09T04:51:49.351Z,95021.22
2023-12-09T04:54:52.563Z,95024.19
2023-12-09T04:57:58.668Z,95023.41
2023-12-09T05:01:03.295Z,95014.44
2023-12-09T05:04:06.670Z,95031.56
2023-12-09T05:07:09.964Z,95035.63
2023-12-09T05:10:13.664Z,95033.75
2023-12-09T05:13:18.491Z,95023.81
2023-12-09T05:16:21.605Z,95046.78
2023-12-09T05:19:25.908Z,95046.91
2023-12-09T05:22:29.298Z,95056.97
2023-12-09T05:25:32.543Z,95067.63
2023-12-09T05:28:37.402Z,95070.75
2023-12-09T05:31:42.027Z,95070.75
2023-12-09T05:34:45.309Z,95073.75
2023-12-09T05:37:48.812Z,95070.28
2023-12-09T05:40:51.991Z,95071.38
2023-12-09T05:43:56.719Z,95073.19
2023-12-09T05:46:59.873Z,95091.13
2023-12-09T05:50:02.997Z,95075.13
2023-12-09T05:53:06.180Z,95072.94
2023-12-09T05:56:12.117Z,95082.81
2023-12-09T05:59:16.991Z,95083.59
2023-12-09T06:02:20.128Z,95090.03
2023-12-09T06:05:26.584Z,95095.84
2023-12-09T06:08:29.787Z,95088.31
2023-12-09T06:11:33.256Z,95089.00
2023-12-09T06:14:37.837Z,95085.69
2023-12-09T06:17:40.955Z,95093.78
2023-12-09T06:20:44.131Z,95093.00
2023-12-09T06:23:49.108Z,95101.63
2023-12-09T06:26:52.192Z,95098.94
2023-12-09T06:29:56.872Z,95094.47
2023-12-09T06:33:02.134Z,95080.84
2023-12-09T06:36:06.079Z,95099.00
2023-12-09T06:39:10.375Z,95104.91
2023-12-09T06:42:13.698Z,95101.75
2023-12-09T06:45:18.764Z,95096.25
2023-12-09T06:48:22.987Z,95107.38
2023-12-09T06:51:26.839Z,95113.81
2023-12-09T06:54:29.956Z,95109.56
2023-12-09T06:57:33.135Z,95116.28
2023-12-09T07:00:38.755Z,95107.50
2023-12-09T07:03:42.625Z,95119.13
2023-12-09T07:06:45.912Z,95120.53
2023-12-09T07:09:51.451Z,95127.47
2023-12-09T07:12:54.738Z,95121.19
2023-12-09T07:16:00.123Z,95119.13
2023-12-09T07:19:03.725Z,95120.09
2023-12-09T07:22:07.045Z,95132.81
2023-12-09T07:25:10.696Z,95130.16
2023-12-09T07:28:14.596Z,95127.59
2023-12-09T07:31:20.137Z,95133.72
2023-12-09T07:34:23.514Z,95144.38
2023-12-09T07:37:27.186Z,95157.22
2023-12-09T07:40:30.630Z,95145.59
2023-12-09T07:43:34.149Z,95147.34
2023-12-09T07:46:38.726Z,95140.13
2023-12-09T07:49:44.052Z,95148.63
2023-12-09T07:52:47.317Z,95150.91
2023-12-09T07:55:50.445Z,95163.94
2023-12-09T07:58:54.682Z,95163.16
2023-12-09T08:01:59.266Z,95156.25
2023-12-09T08:05:03.194Z,95158.91
2023-12-09T08:08:07.820Z,95171.31
2023-12-09T08:11:13.241Z,95176.34
2023-12-09T08:14:16.442Z,95165.19
2023-12-09T08:17:21.114Z,95166.28
2023-12-09T08:20:24.501Z,95172.59
2023-12-09T08:23:27.883Z,95166.28
2023-12-09T08:26:31.576Z,95173.50
2023-12-09T08:29:37.434Z,95165.50
2023-12-09T08:32:43.124Z,95172.09
2023-12-09T08:35:47.729Z,95174.75
2023-12-09T08:38:53.138Z,95172.41
2023-12-09T08:41:56.446Z,95166.28
2023-12-09T08:44:59.758Z,95164.72
2023-12-09T08:48:08.251Z,95164.72
2023-12-09T08:51:11.658Z,95168.94
2023-12-09T08:54:15.982Z,95160.19
2023-12-09T08:57:20.020Z,95172.41
2023-12-09T09:00:27.511Z,95162.53
2023-12-09T09:03:32.170Z,95167.06
2023-12-09T09:06:35.340Z,95167.88
2023-12-09T09:09:40.962Z,95167.88
2023-12-09T09:12:45.569Z,95161.75
2023-12-09T09:15:51.311Z,95158.00
2023-12-09T09:18:56.311Z,95153.75
2023-12-09T09:22:00.657Z,95144.19
2023-12-09T09:25:04.139Z,95142.31
2023-12-09T09:28:08.152Z,95125.56
2023-12-09T09:31:13.134Z,95141.53
2023-12-09T09:34:17.764Z,95130.41
2023-12-09T09:37:22.683Z,95128.41
2023-12-09T09:40:26.013Z,95119.13
2023-12-09T09:43:33.245Z,95119.91
2023-12-09T09:46:40.288Z,95112.53
2023-12-09T09:49:49.231Z,95118.22
2023-12-09T09:52:55.196Z,95110.22
2023-12-09T09:55:59.876Z,95104.13
2023-12-09T09:59:04.876Z,95115.19
2023-12-09T10:02:09.170Z,95113.78
2023-12-09T10:05:14.277Z,95119.13
2023-12-09T10:08:17.414Z,95114.41
2023-12-09T10:11:20.562Z,95118.13
2023-12-09T10:14:24.475Z,95118.63
2023-12-09T10:17:28.476Z,95111.13
2023-12-09T10:20:35.974Z,95109.66
2023-12-09T10:23:39.370Z,95122.31
2023-12-09T10:26:44.176Z,95115.50
2023-12-09T10:29:48.088Z,95128.69
2023-12-09T10:32:53.344Z,95113.91
2023-12-09T10:35:58.983Z,95107.97
2023-12-09T10:39:02.372Z,95115.19
2023-12-09T10:42:06.532Z,95112.00
2023-12-09T10:45:12.708Z,95100.06
2023-12-09T10:48:16.479Z,95100.66
2023-12-09T10:51:21.464Z,95100.88
2023-12-09T10:54:25.047Z,95093.19
2023-12-09T10:57:30.177Z,95092.47
2023-12-09T11:00:37.753Z,95092.06
2023-12-09T11:03:41.685Z,95092.38
2023-12-09T11:06:48.565Z,95083.19
2023-12-09T11:09:52.120Z,95082.50
2023-12-09T11:12:55.625Z,95087.88
2023-12-09T11:16:12.343Z,95084.13
2023-12-09T11:19:18.267Z,95085.41
2023-12-09T11:22:23.572Z,95086.69
2023-12-09T11:25:29.056Z,95074.94
2023-12-09T11:28:32.618Z,95064.28
2023-12-09T11:31:40.896Z,95063.19
2023-12-09T11:34:44.509Z,95045.56
2023-12-09T11:37:51.538Z,95068.09
2023-12-09T11:40:55.684Z,95069.50
2023-12-09T11:44:00.248Z,95062.75
2023-12-09T11:47:06.009Z,95055.38
2023-12-09T11:50:10.307Z,95053.19
2023-12-09T11:53:15.072Z,95051.91
2023-12-09T11:56:18.637Z,95047.28
2023-12-09T11:59:21.821Z,95045.50
2023-12-09T12:02:25.295Z,95050.69
2023-12-09T12:05:31.594Z,95047.41
2023-12-09T12:08:36.667Z,95052.81
2023-12-09T12:11:41.811Z,95055.16
2023-12-09T12:14:45.143Z,95052.34
2023-12-09T12:17:49.724Z,95051.41
2023-12-09T12:20:53.165Z,95060.63
2023-12-09T12:23:57.981Z,95053.50
2023-12-09T12:27:01.614Z,95057.81
2023-12-09T12:30:05.623Z,95054.69
2023-12-09T12:33:09.066Z,95049.50
2023-12-09T12:36:13.149Z,95046.13
2023-12-09T12:39:18.591Z,95049.69
2023-12-09T12:42:22.108Z,95043.25
2023-12-09T12:45:28.569Z,95041.03
2023-12-09T12:48:32.806Z,95048.13
2023-12-09T12:51:36.558Z,95040.44
2023-12-09T12:54:41.581Z,95042.44
2023-12-09T12:57:45.579Z,95049.88
2023-12-09T13:00:50.899Z,95050.22
2023-12-09T13:03:54.713Z,95040.00
2023-12-09T13:06:58.228Z,95051.53
2023-12-09T13:10:06.471Z,95058.50
2023-12-09T13:13:09.858Z,95030.44
2023-12-09T13:16:13.150Z,95047.56
2023-12-09T13:19:16.980Z,95050.34
2023-12-09T13:22:20.232Z,95030.94
2023-12-09T13:25:25.004Z,95048.38
2023-12-09T13:28:28.952Z,95053.19
2023-12-09T13:31:32.732Z,95050.06
2023-12-09T13:34:37.023Z,95055.09
2023-12-09T13:37:40.579Z,95055.88
2023-12-09T13:40:47.661Z,95053.50
2023-12-09T13:43:52.145Z,95047.53
2023-12-09T13:46:55.357Z,95045.34
2023-12-09T13:49:58.602Z,95041.41
2023-12-09T13:53:02.382Z,95041.69
2023-12-09T13:56:08.322Z,95040.19
2023-12-09T13:59:11.616Z,95048.97
2023-12-09T14:02:14.949Z,95047.69
2023-12-09T14:05:18.498Z,95054.78
2023-12-09T14:08:22.287Z,95051.63
2023-12-09T14:11:28.628Z,95056.78
2023-12-09T14:14:32.727Z,95055.38
2023-12-09T14:17:36.217Z,95060.72
2023-12-09T14:20:39.445Z,95062.91
2023-12-09T14:23:43.141Z,95062.91
2023-12-09T14:26:49.281Z,95066.44
2023-12-09T14:29:52.877Z,95060.06
2023-12-09T14:32:56.155Z,95060.03
2023-12-09T14:35:59.460Z,95057.47
2023-12-09T14:39:07.843Z,95056.31
2023-12-09T14:42:12.742Z,95055.53
2023-12-09T14:45:16.326Z,95056.00
2023-12-09T14:48:20.292Z,95051.06
2023-12-09T14:51:36.989Z,95058.44
2023-12-09T14:54:46.476Z,95058.44
2023-12-09T14:57:51.663Z,95060.78
2023-12-09T15:00:55.465Z,95057.81
2023-12-09T15:03:59.906Z,95052.50
2023-12-09T15:07:03.696Z,95040.69
2023-12-09T15:10:08.164Z,95052.00
2023-12-09T15:13:12.931Z,95044.50
2023-12-09T15:16:16.374Z,95043.72
2023-12-09T15:19:19.953Z,95039.47
2023-12-09T15:22:23.939Z,95038.38
2023-12-09T15:25:27.194Z,95044.97
2023-12-09T15:28:32.019Z,95046.28
2023-12-09T15:31:35.340Z,95038.00
2023-12-09T15:34:39.647Z,95047.72
2023-12-09T15:37:45.066Z,95049.78
2023-12-09T15:40:48.458Z,95050.28
2023-12-09T15:43:53.509Z,95062.78
2023-12-09T15:46:57.549Z,95052.94
2023-12-09T15:50:02.015Z,95050.06
2023-12-09T15:53:05.493Z,95052.97
2023-12-09T15:56:10.400Z,95048.38
2023-12-09T15:59:15.235Z,95041.28
2023-12-09T16:02:18.602Z,95044.25
2023-12-09T16:14:19.067Z,95057.53
2023-12-09T16:17:22.672Z,95058.06
2023-12-09T16:20:26.005Z,95054.78
2023-12-09T16:23:29.401Z,95050.66
2023-12-09T16:26:34.875Z,95056.16
2023-12-09T16:29:40.447Z,95072.94
2023-12-09T16:32:43.841Z,95062.91
2023-12-09T16:35:47.222Z,95064.91
2023-12-09T16:38:50.438Z,95073.13
2023-12-09T16:41:53.823Z,95069.41
2023-12-09T16:44:59.151Z,95075.44
2023-12-09T16:48:03.387Z,95076.16
2023-12-09T16:51:07.229Z,95076.84
2023-12-09T16:54:11.243Z,95085.31
2023-12-09T16:57:17.102Z,95073.88
2023-12-09T17:00:22.297Z,95072.84
2023-12-09T17:03:26.138Z,95085.41
2023-12-09T17:06:29.481Z,95093.56
2023-12-09T17:09:33.802Z,95087.09
2023-12-09T17:12:40.579Z,95089.19
2023-12-09T17:15:47.250Z,95078.22
2023-12-09T17:18:51.157Z,95081.88
2023-12-09T17:21:54.527Z,95078.09
2023-12-09T17:24:57.852Z,95089.56
2023-12-09T17:28:01.203Z,95069.44
2023-12-09T17:31:06.607Z,95081.50
2023-12-09T17:34:11.744Z,95087.63
2023-12-09T17:37:15.859Z,95082.91
2023-12-09T17:40:19.755Z,95088.84
2023-12-09T17:43:23.849Z,95093.38
2023-12-09T17:46:29.243Z,95077.13
2023-12-09T17:49:32.946Z,95092.88
2023-12-09T17:52:38.475Z,95099.13
2023-12-09T17:55:43.207Z,95101.94
2023-12-09T17:58:49.255Z,95105.06
2023-12-09T18:01:54.327Z,95104.84
2023-12-09T18:04:58.027Z,95090.13
2023-12-09T18:08:04.943Z,95094.38
2023-12-09T18:11:08.668Z,95104.31
2023-12-09T18:14:12.300Z,95095.81
2023-12-09T18:17:17.203Z,95097.13
2023-12-09T18:20:20.677Z,95097.81
2023-12-09T18:23:24.156Z,95101.75
2023-12-09T18:26:27.812Z,95107.81
2023-12-09T18:29:31.620Z,95103.44
2023-12-09T18:32:39.802Z,95103.56
2023-12-09T18:35:43.647Z,95102.59
2023-12-09T18:38:46.883Z,95104.59
2023-12-09T18:41:50.109Z,95106.28
2023-12-09T18:44:53.864Z,95108.31
2023-12-09T18:47:58.723Z,95112.50
2023-12-09T18:51:04.844Z,95105.81
2023-12-09T18:54:08.906Z,95117.44
2023-12-09T18:57:14.460Z,95115.13
2023-12-09T19:00:17.888Z,95113.47
2023-12-09T19:03:23.309Z,95116.28
2023-12-09T19:06:26.729Z,95126.34
2023-12-09T19:09:30.163Z,95120.38
2023-12-09T19:12:33.534Z,95122.09
2023-12-09T19:15:36.993Z,95127.59
2023-12-09T19:18:41.869Z,95127.00
2023-12-09T19:21:45.340Z,95127.81
2023-12-09T19:24:49.023Z,95131.41
2023-12-09T19:27:52.255Z,95100.66
2023-12-09T19:30:55.564Z,95129.69
2023-12-09T19:34:01.867Z,95129.84
2023-12-09T19:37:05.690Z,95133.94
2023-12-09T19:40:11.674Z,95128.13
2023-12-09T19:43:17.775Z,95129.72
2023-12-09T19:46:21.009Z,95129.72
2023-12-09T19:49:26.155Z,95125.00
2023-12-09T19:52:30.485Z,95125.31
2023-12-09T19:55:37.669Z,95117.72
2023-12-09T19:58:41.152Z,95121.38
2023-12-09T20:01:44.469Z,95112.38
2023-12-09T20:04:49.750Z,95131.72
2023-12-09T20:07:53.111Z,95121.38
2023-12-09T20:10:57.810Z,95114.75
2023-12-09T20:14:01.112Z,95119.03
2023-12-09T20:17:07.125Z,95115.75
2023-12-09T20:20:12.988Z,95114.66
2023-12-09T20:23:16.454Z,95121.25
2023-12-09T20:26:19.793Z,95124.41
2023-12-09T20:29:23.309Z,95130.84
2023-12-09T20:32:27.132Z,95128.19
2023-12-09T20:35:32.324Z,95126.31
2023-12-09T20:38:36.261Z,95135.38
2023-12-09T20:41:39.998Z,95133.22
2023-12-09T20:44:44.562Z,95110.47
2023-12-09T20:47:48.375Z,95124.59
2023-12-09T20:50:54.621Z,95111.19
2023-12-09T20:53:58.041Z,95117.94
2023-12-09T20:57:03.292Z,95116.03
2023-12-09T21:00:09.775Z,95114.47
2023-12-09T21:03:13.324Z,95110.88
2023-12-09T21:06:18.314Z,95108.22
2023-12-09T21:09:23.703Z,95111.50
2023-12-09T21:12:27.101Z,95112.13
2023-12-09T21:15:30.542Z,95108.03
2023-12-09T21:18:33.975Z,95099.72
2023-12-09T21:21:38.553Z,95086.06
2023-12-09T21:24:41.954Z,95095.97
2023-12-09T21:27:45.618Z,95095.66
2023-12-09T21:30:48.990Z,95083.72
2023-12-09T21:33:53.397Z,95077.75
2023-12-09T21:36:58.009Z,95070.06
2023-12-09T21:40:01.612Z,95076.50
2023-12-09T21:43:05.476Z,95067.09
2023-12-09T21:46:08.627Z,95066.91
2023-12-09T21:49:12.071Z,95065.81
2023-12-09T21:52:16.882Z,95071.00
2023-12-09T21:55:21.087Z,95065.00
2023-12-09T21:58:24.378Z,95068.19
2023-12-09T22:01:27.494Z,95065.75
2023-12-09T22:04:30.681Z,95066.53
2023-12-09T22:07:35.349Z,95067.44
2023-12-09T22:10:38.980Z,95061.91
2023-12-09T22:13:42.728Z,95065.19
2023-12-09T22:16:46.186Z,95077.25
2023-12-09T22:19:49.299Z,95074.91
2023-12-09T22:22:55.706Z,95079.75
2023-12-09T22:25:59.379Z,95074.72
2023-12-09T22:29:02.666Z,95080.38
2023-12-09T22:32:06.535Z,95084.13
2023-12-09T22:35:10.396Z,95079.09
2023-12-09T22:38:15.313Z,95080.16
2023-12-09T22:41:22.749Z,95077.81
2023-12-09T22:44:25.875Z,95069.03
2023-12-09T22:47:30.167Z,95060.56
2023-12-09T22:50:33.431Z,95056.31
2023-12-09T22:53:37.960Z,95049.41
2023-12-09T22:56:41.139Z,95047.84
2023-12-09T22:59:45.518Z,95039.38
2023-12-09T23:02:48.664Z,95037.78
2023-12-09T23:05:51.756Z,95033.88
2023-12-09T23:08:56.331Z,95027.75
2023-12-09T23:11:59.590Z,95022.44
2023-12-09T23:15:02.881Z,95019.75
2023-12-09T23:18:06.312Z,95010.19
2023-12-09T23:21:10.210Z,95009.41
2023-12-09T23:24:14.994Z,95009.41
2023-12-09T23:27:18.152Z,95008.31
2023-12-09T23:30:21.382Z,95007.53
2023-12-09T23:33:24.817Z,95003.31
2023-12-09T23:36:28.172Z,95005.47
2023-12-09T23:39:32.890Z,95006.25
2023-12-09T23:42:36.151Z,94991.34
2023-12-09T23:45:39.518Z,94991.06
2023-12-09T23:48:42.842Z,94990.56
2023-12-09T23:51:46.040Z,94986.31
2023-12-09T23:54:50.623Z,94986.59
2023-12-09T23:57:53.842Z,94986.13
